Time;durP1;ratioP1;P1;durP2;ratioP2;P2;SDS_P1;SDS_P2;PMS_P1;PMS_P2;Temp;Humidity;BMP_temperature;BMP_pressure;BME280_temperature;BME280_humidity;BME280_pressure;Samples;Min_cycle;Max_cycle;Signal;HPM_P1;HPM_P2
2021/11/22 00:00:25;;;;;;;0.10;0.10;;;;;;;5.88;64.91;102628.97;7364327;19;20066;-64
2021/11/22 00:02:53;;;;;;;0.10;0.10;;;;;;;5.80;65.06;102617.50;7360006;19;20024;-64
2021/11/22 00:05:18;;;;;;;0.10;0.10;;;;;;;5.79;65.17;102636.50;7364853;19;20101;-63
2021/11/22 00:07:44;;;;;;;0.00;0.00;;;;;;;5.76;65.54;102631.22;7360637;19;20012;-64
2021/11/22 00:10:10;;;;;;;0.00;0.00;;;;;;;5.73;65.25;102628.56;7359994;19;21179;-64
2021/11/22 00:12:36;;;;;;;0.00;0.00;;;;;;;5.57;65.26;102605.59;7361966;19;20019;-64
2021/11/22 00:15:05;;;;;;;0.05;0.05;;;;;;;5.69;65.58;102629.28;7363755;19;20007;-64
2021/11/22 00:17:34;;;;;;;0.00;0.00;;;;;;;5.65;64.99;102624.84;7358572;19;20010;-64
2021/11/22 00:19:59;;;;;;;0.00;0.00;;;;;;;5.58;65.14;102621.22;7355588;19;20370;-64
2021/11/22 00:22:26;;;;;;;0.10;0.10;;;;;;;5.57;65.09;102639.28;7363562;19;20007;-64
2021/11/22 00:24:52;;;;;;;0.00;0.00;;;;;;;5.52;65.11;102638.28;7363584;19;20577;-64
2021/11/22 00:27:18;;;;;;;0.08;0.08;;;;;;;5.46;65.68;102642.44;7363407;19;20038;-64
2021/11/22 00:29:43;;;;;;;0.10;0.10;;;;;;;5.41;65.68;102633.66;7362970;19;20010;-64
2021/11/22 00:32:09;;;;;;;0.10;0.10;;;;;;;5.37;65.70;102642.22;7365056;19;20007;-63
2021/11/22 00:34:41;;;;;;;0.00;0.00;;;;;;;5.33;65.85;102631.72;7354694;19;20597;-62
2021/11/22 00:37:16;;;;;;;0.10;0.10;;;;;;;5.30;65.96;102634.19;7359519;19;20086;-64
2021/11/22 00:39:41;;;;;;;0.00;0.00;;;;;;;5.27;66.17;102629.81;7358400;19;20010;-63
2021/11/22 00:42:08;;;;;;;0.10;0.10;;;;;;;5.26;66.35;102638.41;7357744;19;20051;-64
2021/11/22 00:44:35;;;;;;;0.10;0.10;;;;;;;5.24;66.44;102634.88;7359994;19;20015;-64
2021/11/22 00:47:01;;;;;;;0.10;0.10;;;;;;;5.16;66.30;102615.63;7356588;19;20031;-63
2021/11/22 00:49:27;;;;;;;0.05;0.05;;;;;;;5.17;66.28;102627.75;7358944;19;20468;-63
2021/11/22 00:51:52;;;;;;;0.10;0.10;;;;;;;5.11;66.17;102622.38;7344211;19;20022;-64
2021/11/22 00:54:18;;;;;;;0.00;0.00;;;;;;;5.20;66.24;102649.44;7347319;19;20002;-64
2021/11/22 00:56:43;;;;;;;0.00;0.00;;;;;;;5.19;66.32;102652.00;7354277;19;20018;-64
2021/11/22 00:59:10;;;;;;;0.00;0.00;;;;;;;5.16;66.10;102657.94;7343863;19;20018;-65
2021/11/22 01:01:36;;;;;;;0.10;0.10;;;;;;;5.14;66.67;102661.34;7360668;19;20010;-64
2021/11/22 01:04:03;;;;;;;0.00;0.00;;;;;;;5.13;66.33;102662.19;7353173;19;20542;-64
2021/11/22 01:06:28;;;;;;;0.00;0.00;;;;;;;5.00;67.02;102631.53;7358214;19;20015;-64
2021/11/22 01:08:54;;;;;;;0.00;0.00;;;;;;;5.11;67.16;102653.47;7356380;19;20013;-64
2021/11/22 01:11:20;;;;;;;0.10;0.10;;;;;;;5.11;67.19;102648.28;7360843;19;20125;-64
2021/11/22 01:13:46;;;;;;;0.10;0.10;;;;;;;5.11;67.12;102643.09;7355019;19;20014;-64
2021/11/22 01:16:11;;;;;;;0.10;0.10;;;;;;;5.13;66.99;102651.81;7337771;19;20090;-64
2021/11/22 01:18:37;;;;;;;0.10;0.10;;;;;;;5.14;67.23;102653.56;7357766;19;20023;-63
2021/11/22 01:21:02;;;;;;;0.10;0.10;;;;;;;5.15;66.93;102660.50;7360449;19;20033;-65
2021/11/22 01:23:28;;;;;;;0.10;0.10;;;;;;;5.05;66.72;102636.03;7354557;19;20027;-61
2021/11/22 01:25:53;;;;;;;0.10;0.10;;;;;;;5.16;67.16;102657.06;7361008;19;20018;-64
2021/11/22 01:28:19;;;;;;;0.00;0.00;;;;;;;5.13;66.69;102655.28;7363043;19;20093;-64
2021/11/22 01:30:44;;;;;;;0.10;0.10;;;;;;;5.02;66.58;102635.03;7359734;19;20376;-64
2021/11/22 01:33:13;;;;;;;0.10;0.10;;;;;;;5.14;66.63;102663.94;7360300;19;20006;-62
2021/11/22 01:35:41;;;;;;;0.10;0.10;;;;;;;5.12;66.73;102666.47;7354659;19;20707;-64
2021/11/22 01:38:07;;;;;;;0.00;0.00;;;;;;;5.12;67.05;102671.66;7354133;19;20022;-64
2021/11/22 01:40:32;;;;;;;0.00;0.00;;;;;;;5.10;66.56;102681.06;7362226;19;20006;-64
2021/11/22 01:42:58;;;;;;;0.00;0.00;;;;;;;5.08;66.79;102679.28;7358230;19;20026;-63
2021/11/22 01:45:24;;;;;;;0.00;0.00;;;;;;;5.06;67.23;102675.75;7356645;19;20098;-64
2021/11/22 01:47:50;;;;;;;0.00;0.00;;;;;;;5.06;67.49;102686.09;7357974;19;20018;-64
2021/11/22 01:50:20;;;;;;;0.00;0.00;;;;;;;5.05;67.52;102679.16;7358023;19;20010;-64
2021/11/22 01:52:46;;;;;;;0.08;0.08;;;;;;;5.02;67.51;102679.06;7356642;19;20010;-64
2021/11/22 01:55:15;;;;;;;0.10;0.10;;;;;;;5.04;67.22;102674.84;7359703;19;20010;-64
2021/11/22 01:57:42;;;;;;;0.10;0.10;;;;;;;5.03;67.29;102671.38;7362251;19;20010;-64
2021/11/22 02:00:30;;;;;;;0.10;0.10;;;;;;;5.03;67.22;102673.09;7360119;19;20014;-63
2021/11/22 02:02:56;;;;;;;0.00;0.00;;;;;;;5.01;67.30;102682.50;7357779;19;20038;-64
2021/11/22 02:05:23;;;;;;;0.00;0.00;;;;;;;4.99;67.34;102689.34;7358169;19;20090;-64
2021/11/22 02:07:49;;;;;;;0.00;0.00;;;;;;;5.00;67.23;102701.44;7353550;19;20536;-64
2021/11/22 02:10:16;;;;;;;0.00;0.00;;;;;;;4.99;67.03;102705.75;7360565;19;20465;-64
2021/11/22 02:12:42;;;;;;;0.00;0.00;;;;;;;4.98;67.47;102700.53;7365800;19;20376;-64
2021/11/22 02:15:09;;;;;;;0.10;0.10;;;;;;;4.94;67.50;102692.66;7369486;19;20107;-64
2021/11/22 02:17:39;;;;;;;0.10;0.10;;;;;;;4.89;67.24;102680.41;7366203;19;20014;-63
2021/11/22 02:20:11;;;;;;;0.10;0.10;;;;;;;4.94;67.40;102692.66;7368919;19;20012;-64
2021/11/22 02:22:36;;;;;;;0.05;0.05;;;;;;;4.91;67.73;102692.53;7364898;19;20002;-64
2021/11/22 02:25:07;;;;;;;0.03;0.03;;;;;;;4.91;67.44;102689.06;7369249;19;20119;-64
2021/11/22 02:27:34;;;;;;;0.10;0.10;;;;;;;4.89;67.80;102689.03;7327353;19;20864;-64
2021/11/22 02:30:00;;;;;;;0.10;0.10;;;;;;;4.87;67.64;102695.88;7337510;19;20013;-64
2021/11/22 02:32:25;;;;;;;0.00;0.00;;;;;;;4.88;67.72;102707.13;7367365;19;20014;-64
2021/11/22 02:34:51;;;;;;;0.00;0.00;;;;;;;4.79;67.87;102692.16;7358947;19;20027;-64
2021/11/22 02:37:16;;;;;;;0.03;0.03;;;;;;;4.86;67.37;102708.75;7370898;19;20006;-65
2021/11/22 02:39:42;;;;;;;0.00;0.00;;;;;;;4.85;67.40;102714.78;7363969;19;20011;-64
2021/11/22 02:42:23;;;;;;;0.10;0.10;;;;;;;4.85;67.58;102707.00;7367829;19;20074;-64
2021/11/22 02:44:50;;;;;;;0.10;0.10;;;;;;;4.81;67.77;102700.84;7360721;19;20021;-64
2021/11/22 02:47:15;;;;;;;0.10;0.10;;;;;;;4.81;67.82;102706.00;7348785;19;20022;-64
2021/11/22 02:49:41;;;;;;;0.10;0.10;;;;;;;4.79;67.93;102686.97;7364186;19;20034;-64
2021/11/22 02:52:07;;;;;;;0.00;0.00;;;;;;;4.79;68.03;102688.69;7364910;19;20789;-64
2021/11/22 02:54:32;;;;;;;0.10;0.10;;;;;;;4.79;67.89;102692.16;7367463;19;20007;-65
2021/11/22 02:56:58;;;;;;;0.00;0.00;;;;;;;4.78;67.72;102705.06;7365378;19;20017;-64
2021/11/22 02:59:23;;;;;;;0.10;0.10;;;;;;;4.78;67.44;102711.09;7355566;19;20039;-66
2021/11/22 03:01:49;;;;;;;0.10;0.10;;;;;;;4.78;67.46;102718.88;7365736;19;20018;-64
2021/11/22 03:04:14;;;;;;;0.10;0.10;;;;;;;4.78;67.66;102730.94;7362706;19;20046;-63
2021/11/22 03:06:40;;;;;;;0.00;0.00;;;;;;;4.77;67.72;102719.72;7367818;19;20007;-64
2021/11/22 03:09:05;;;;;;;0.10;0.10;;;;;;;4.77;68.00;102714.53;7362878;19;20693;-64
2021/11/22 03:11:31;;;;;;;0.05;0.05;;;;;;;4.77;68.11;102704.19;7363247;19;20023;-65
2021/11/22 03:13:56;;;;;;;0.00;0.00;;;;;;;4.77;67.89;102698.13;7368301;19;20006;-66
2021/11/22 03:16:22;;;;;;;0.10;0.10;;;;;;;4.76;68.16;102701.53;7364639;19;20049;-65
2021/11/22 03:18:48;;;;;;;0.10;0.10;;;;;;;4.78;68.28;102708.53;7364955;19;20099;-66
2021/11/22 03:21:13;;;;;;;0.10;0.10;;;;;;;4.80;67.88;102717.19;7362953;19;20030;-63
2021/11/22 03:23:41;;;;;;;0.10;0.10;;;;;;;4.81;67.86;102713.78;7361686;19;20352;-65
2021/11/22 03:26:07;;;;;;;0.08;0.08;;;;;;;4.80;67.99;102724.97;7367103;19;20025;-66
2021/11/22 03:28:33;;;;;;;0.00;0.00;;;;;;;4.81;67.77;102720.66;7367761;19;20014;-66
2021/11/22 03:30:59;;;;;;;0.00;0.00;;;;;;;4.77;67.77;102730.06;7362208;19;20746;-65
2021/11/22 03:33:25;;;;;;;0.10;0.10;;;;;;;4.79;67.88;102728.38;7363595;19;20025;-65
2021/11/22 03:35:53;;;;;;;0.10;0.10;;;;;;;4.79;67.90;102722.34;7364574;19;20027;-65
2021/11/22 03:38:20;;;;;;;0.10;0.10;;;;;;;4.79;68.06;102723.22;7363561;19;20722;-64
2021/11/22 03:40:48;;;;;;;0.10;0.10;;;;;;;4.79;67.70;102717.16;7364202;19;21630;-66
2021/11/22 03:43:16;;;;;;;0.10;0.10;;;;;;;4.77;67.77;102727.47;7359853;19;20010;-65
2021/11/22 03:45:47;;;;;;;0.10;0.10;;;;;;;4.77;67.88;102727.47;7365960;19;20034;-64
2021/11/22 03:48:13;;;;;;;0.10;0.10;;;;;;;4.76;67.60;102732.56;7361428;19;20022;-64
2021/11/22 03:50:39;;;;;;;0.10;0.10;;;;;;;4.67;67.94;102717.63;7366068;19;20506;-65
2021/11/22 03:53:04;;;;;;;0.10;0.10;;;;;;;4.67;68.11;102718.53;7362983;19;20050;-64
2021/11/22 03:55:30;;;;;;;0.10;0.10;;;;;;;4.72;68.04;102725.56;7357304;19;20010;-65
2021/11/22 03:57:56;;;;;;;0.10;0.10;;;;;;;4.70;68.04;102728.06;7368936;19;20057;-65
2021/11/22 04:00:22;;;;;;;0.10;0.10;;;;;;;4.69;67.81;102732.38;7362399;19;20401;-65
2021/11/22 04:02:48;;;;;;;0.00;0.00;;;;;;;4.67;68.10;102739.22;7359271;19;21276;-65
2021/11/22 04:05:13;;;;;;;0.00;0.00;;;;;;;4.54;67.72;102716.31;7363307;19;20031;-63
2021/11/22 04:07:39;;;;;;;0.00;0.00;;;;;;;4.66;68.01;102739.16;7362703;19;20036;-66
2021/11/22 04:10:04;;;;;;;0.10;0.10;;;;;;;4.66;67.79;102739.16;7353284;19;20022;-64
2021/11/22 04:12:30;;;;;;;0.00;0.00;;;;;;;4.64;68.18;102733.06;7363368;19;20011;-65
2021/11/22 04:14:56;;;;;;;0.10;0.10;;;;;;;4.51;67.78;102710.16;7360692;19;20010;-65
2021/11/22 04:17:21;;;;;;;0.10;0.10;;;;;;;4.61;68.01;102730.34;7363356;19;20039;-65
2021/11/22 04:19:47;;;;;;;0.00;0.00;;;;;;;4.60;67.72;102731.19;7362403;19;20018;-65
2021/11/22 04:22:12;;;;;;;0.10;0.10;;;;;;;4.57;67.78;102725.91;7362693;19;20014;-66
2021/11/22 04:24:39;;;;;;;0.00;0.00;;;;;;;4.55;67.87;102737.91;7364639;19;20015;-65
2021/11/22 04:27:08;;;;;;;0.10;0.10;;;;;;;4.53;67.75;102739.56;7367405;19;20011;-65
2021/11/22 04:29:33;;;;;;;0.03;0.03;;;;;;;4.45;67.83;102735.81;7363424;19;20013;-65
2021/11/22 04:31:59;;;;;;;0.10;0.10;;;;;;;4.47;67.84;102747.13;7362517;19;20470;-65
2021/11/22 04:34:24;;;;;;;0.10;0.10;;;;;;;4.45;67.78;102741.00;7366655;19;20031;-65
2021/11/22 04:36:50;;;;;;;0.10;0.10;;;;;;;4.45;67.78;102741.00;7365746;19;20010;-66
2021/11/22 04:39:15;;;;;;;0.10;0.10;;;;;;;4.41;67.90;102745.19;7365087;19;20003;-65
2021/11/22 04:41:42;;;;;;;0.10;0.10;;;;;;;4.39;68.12;102739.06;7363126;19;20018;-66
2021/11/22 04:44:07;;;;;;;0.10;0.10;;;;;;;4.37;68.33;102748.50;7366200;19;20023;-65
2021/11/22 04:46:33;;;;;;;0.10;0.10;;;;;;;4.36;67.99;102747.63;7366438;19;20010;-65
2021/11/22 04:48:58;;;;;;;0.00;0.00;;;;;;;4.34;68.24;102751.84;7363547;19;20011;-65
2021/11/22 04:51:25;;;;;;;0.00;0.00;;;;;;;4.34;68.38;102751.84;7362714;19;20019;-65
2021/11/22 04:53:50;;;;;;;0.10;0.10;;;;;;;4.33;68.11;102752.69;7364354;19;20003;-65
2021/11/22 04:56:16;;;;;;;0.00;0.00;;;;;;;4.30;68.22;102752.56;7366492;19;20037;-65
2021/11/22 04:58:41;;;;;;;0.00;0.00;;;;;;;4.27;68.02;102752.47;7363470;19;20047;-65
2021/11/22 05:01:07;;;;;;;0.10;0.10;;;;;;;4.27;68.21;102757.63;7364417;19;20013;-65
2021/11/22 05:03:32;;;;;;;0.10;0.10;;;;;;;4.24;68.20;102762.69;7366209;19;20012;-65
2021/11/22 05:05:58;;;;;;;0.00;0.00;;;;;;;4.23;68.21;102760.94;7366015;19;20115;-65
2021/11/22 05:08:24;;;;;;;0.00;0.00;;;;;;;4.22;68.13;102773.81;7365631;19;20002;-64
2021/11/22 05:10:49;;;;;;;0.10;0.10;;;;;;;4.20;68.30;102776.31;7356566;19;20006;-65
2021/11/22 05:13:17;;;;;;;0.00;0.00;;;;;;;4.17;68.18;102771.06;7367554;19;20071;-65
2021/11/22 05:15:42;;;;;;;0.10;0.10;;;;;;;4.15;67.97;102783.03;7363485;19;20006;-65
2021/11/22 05:18:10;;;;;;;0.10;0.10;;;;;;;4.12;68.46;102777.75;7365270;19;20002;-65
2021/11/22 05:20:37;;;;;;;0.10;0.10;;;;;;;4.10;67.92;102785.44;7364861;19;20018;-65
2021/11/22 05:23:03;;;;;;;0.10;0.10;;;;;;;4.06;68.15;102775.84;7367171;19;20036;-64
2021/11/22 05:25:29;;;;;;;0.00;0.00;;;;;;;3.95;68.65;102769.34;7362396;19;20046;-65
2021/11/22 05:27:55;;;;;;;0.10;0.10;;;;;;;4.03;68.56;102782.59;7364640;19;21909;-64
2021/11/22 05:30:25;;;;;;;0.10;0.10;;;;;;;4.01;68.30;102781.66;7360188;19;20011;-65
2021/11/22 05:32:52;;;;;;;0.10;0.10;;;;;;;3.98;68.30;102784.13;7364147;19;20074;-65
2021/11/22 05:35:17;;;;;;;0.10;0.10;;;;;;;3.84;68.49;102761.19;7361880;19;20011;-66
2021/11/22 05:37:43;;;;;;;0.00;0.00;;;;;;;3.95;68.64;102783.97;7362140;19;20017;-65
2021/11/22 05:40:12;;;;;;;0.10;0.10;;;;;;;3.95;68.72;102791.75;7328844;19;20581;-65
2021/11/22 05:42:38;;;;;;;0.10;0.10;;;;;;;3.90;68.29;102795.06;7352096;19;20007;-65
2021/11/22 05:45:05;;;;;;;0.10;0.10;;;;;;;3.88;68.67;102788.94;7357042;19;20049;-65
2021/11/22 05:47:30;;;;;;;0.10;0.10;;;;;;;3.87;68.80;102797.50;7362928;19;20021;-65
2021/11/22 05:50:03;;;;;;;0.10;0.10;;;;;;;3.88;68.88;102799.28;7364434;19;20010;-65
2021/11/22 05:52:29;;;;;;;0.00;0.00;;;;;;;3.85;68.74;102801.75;7362968;19;20007;-66
2021/11/22 05:54:56;;;;;;;0.10;0.10;;;;;;;3.76;68.92;102782.44;7361284;19;20007;-65
2021/11/22 05:57:22;;;;;;;0.10;0.10;;;;;;;3.85;68.84;102808.59;7362839;19;20481;-65
2021/11/22 05:59:48;;;;;;;0.10;0.10;;;;;;;3.83;69.18;102811.13;7362151;19;20006;-65
2021/11/22 06:02:13;;;;;;;0.10;0.10;;;;;;;3.72;68.82;102781.41;7360730;19;20742;-65
2021/11/22 06:04:39;;;;;;;0.10;0.10;;;;;;;3.84;68.93;102812.88;7354792;19;20057;-65
2021/11/22 06:07:04;;;;;;;0.00;0.00;;;;;;;3.88;68.94;102816.47;7360153;19;20018;-64
2021/11/22 06:09:30;;;;;;;0.00;0.00;;;;;;;3.90;68.76;102812.25;7364996;19;20721;-65
2021/11/22 06:11:56;;;;;;;0.00;0.00;;;;;;;3.87;69.21;102812.13;7362211;19;20011;-66
2021/11/22 06:14:21;;;;;;;0.03;0.03;;;;;;;3.79;68.96;102791.16;7360504;19;20049;-65
2021/11/22 06:16:47;;;;;;;0.10;0.10;;;;;;;3.75;69.04;102799.63;7365008;19;20034;-65
2021/11/22 06:19:13;;;;;;;0.00;0.00;;;;;;;3.90;69.37;102825.16;7360142;19;20745;-65
2021/11/22 06:21:38;;;;;;;0.10;0.10;;;;;;;3.92;69.37;102827.81;7365006;19;20014;-64
2021/11/22 06:24:05;;;;;;;0.10;0.10;;;;;;;3.90;69.12;102831.25;7357902;19;20020;-65
2021/11/22 06:26:32;;;;;;;0.10;0.10;;;;;;;3.93;69.29;102842.50;7364853;19;20749;-65
2021/11/22 06:28:58;;;;;;;0.10;0.10;;;;;;;3.95;69.43;102840.84;7361050;19;20037;-65
2021/11/22 06:31:24;;;;;;;0.00;0.00;;;;;;;3.95;69.00;102840.84;7362441;19;20011;-66
2021/11/22 06:33:49;;;;;;;0.00;0.00;;;;;;;3.96;68.88;102842.63;7360928;19;20032;-65
2021/11/22 06:36:15;;;;;;;0.00;0.00;;;;;;;3.89;69.05;102832.03;7360214;19;20015;-65
2021/11/22 06:38:40;;;;;;;0.10;0.10;;;;;;;3.90;69.20;102839.00;7362691;19;20011;-65
2021/11/22 06:41:06;;;;;;;0.10;0.10;;;;;;;3.88;69.09;102840.63;7360631;19;20018;-65
2021/11/22 06:43:32;;;;;;;0.00;0.00;;;;;;;3.95;69.47;102851.19;7364679;19;20010;-65
2021/11/22 06:45:57;;;;;;;0.00;0.00;;;;;;;3.94;69.30;102859.78;7358478;19;20027;-64
2021/11/22 06:48:23;;;;;;;0.00;0.00;;;;;;;3.93;69.39;102856.31;7363038;19;20006;-64
2021/11/22 06:50:48;;;;;;;0.10;0.10;;;;;;;3.92;69.12;102858.84;7361773;19;20120;-65
2021/11/22 06:53:13;;;;;;;0.10;0.10;;;;;;;3.90;69.29;102864.84;7361231;19;20010;-65
2021/11/22 06:55:39;;;;;;;0.00;0.00;;;;;;;3.81;69.08;102848.97;7360372;19;20033;-65
2021/11/22 06:58:04;;;;;;;0.00;0.00;;;;;;;3.88;69.35;102861.28;7369579;19;20822;-64
2021/11/22 07:00:30;;;;;;;0.00;0.00;;;;;;;3.88;69.18;102871.63;7364715;19;20037;-65
2021/11/22 07:02:56;;;;;;;0.00;0.00;;;;;;;3.87;69.17;102869.88;7368402;19;20030;-64
2021/11/22 07:05:23;;;;;;;0.10;0.10;;;;;;;3.89;69.50;102875.09;7361598;19;20010;-65
2021/11/22 07:07:50;;;;;;;0.00;0.00;;;;;;;3.86;69.40;102873.28;7370465;19;20802;-65
2021/11/22 07:10:17;;;;;;;0.10;0.10;;;;;;;3.81;69.52;102879.97;7364247;19;20006;-65
2021/11/22 07:12:43;;;;;;;0.00;0.00;;;;;;;3.86;69.46;102883.63;7365018;19;20006;-65
2021/11/22 07:15:09;;;;;;;0.00;0.00;;;;;;;3.86;69.48;102878.47;7367670;19;20022;-64
2021/11/22 07:17:35;;;;;;;0.00;0.00;;;;;;;3.85;69.74;102871.53;7362974;19;20094;-64
2021/11/22 07:20:00;;;;;;;0.10;0.10;;;;;;;3.73;69.58;102855.53;7364704;19;20028;-64
2021/11/22 07:22:26;;;;;;;0.00;0.00;;;;;;;3.84;69.31;102874.03;7363619;19;20023;-65
2021/11/22 07:24:53;;;;;;;0.00;0.00;;;;;;;3.83;69.59;102868.00;7364698;19;20758;-65
2021/11/22 07:27:24;;;;;;;0.00;0.00;;;;;;;3.81;69.61;102869.63;7365031;19;20010;-65
2021/11/22 07:29:49;;;;;;;0.00;0.00;;;;;;;3.81;69.51;102869.63;7359710;19;20382;-64
2021/11/22 07:32:15;;;;;;;0.10;0.10;;;;;;;3.81;69.69;102873.94;7365185;19;20018;-65
2021/11/22 07:34:40;;;;;;;0.10;0.10;;;;;;;3.70;69.57;102860.59;7363109;19;20015;-65
2021/11/22 07:37:06;;;;;;;0.10;0.10;;;;;;;3.73;69.39;102865.84;7362396;19;20015;-65
2021/11/22 07:39:32;;;;;;;0.00;0.00;;;;;;;3.76;69.23;102875.44;7363456;19;20078;-65
2021/11/22 07:41:57;;;;;;;0.03;0.03;;;;;;;3.74;69.41;102882.25;7366635;19;20010;-64
2021/11/22 07:44:25;;;;;;;0.10;0.10;;;;;;;3.69;69.49;102882.06;7362275;19;20243;-64
2021/11/22 07:46:52;;;;;;;0.10;0.10;;;;;;;3.71;69.36;102898.53;7355395;19;20031;-65
2021/11/22 07:49:18;;;;;;;0.03;0.03;;;;;;;3.63;69.08;102892.16;7360186;19;20018;-65
2021/11/22 07:51:43;;;;;;;0.10;0.10;;;;;;;3.58;69.51;102883.31;7359876;19;20031;-65
2021/11/22 07:54:09;;;;;;;0.00;0.00;;;;;;;3.68;69.40;102913.88;7362817;19;20022;-65
2021/11/22 07:56:34;;;;;;;0.00;0.00;;;;;;;3.66;69.10;102910.38;7359653;19;20014;-64
2021/11/22 07:59:00;;;;;;;0.03;0.03;;;;;;;3.66;69.52;102915.53;7362458;19;20018;-65
2021/11/22 08:01:25;;;;;;;0.00;0.00;;;;;;;3.66;69.76;102915.53;7366180;19;20018;-65
2021/11/22 08:03:51;;;;;;;0.00;0.00;;;;;;;3.54;69.72;102902.09;7358554;19;20017;-64
2021/11/22 08:06:18;;;;;;;0.08;0.08;;;;;;;3.66;69.39;102925.00;7364062;19;20110;-64
2021/11/22 08:08:44;;;;;;;0.10;0.10;;;;;;;3.67;69.81;102925.03;7355657;19;20007;-65
2021/11/22 08:13:38;;;;;;;0.10;0.10;;;;;;;3.66;69.81;102925.88;7361931;19;20030;-61
2021/11/22 08:16:05;;;;;;;0.00;0.00;;;;;;;3.66;69.84;102925.88;7360113;19;20731;-63
2021/11/22 08:18:31;;;;;;;0.00;0.00;;;;;;;3.65;69.66;102924.13;7366727;19;20011;-63
2021/11/22 08:20:57;;;;;;;0.10;0.10;;;;;;;3.66;69.61;102925.88;7359897;19;20040;-63
2021/11/22 08:23:23;;;;;;;0.00;0.00;;;;;;;3.64;69.99;102932.66;7361814;19;20022;-63
2021/11/22 08:25:50;;;;;;;0.10;0.10;;;;;;;3.63;69.59;102931.78;7367952;19;20030;-63
2021/11/22 08:28:16;;;;;;;0.10;0.10;;;;;;;3.64;69.88;102937.81;7352675;19;20020;-63
2021/11/22 08:30:41;;;;;;;0.10;0.10;;;;;;;3.65;69.92;102937.03;7366515;19;20033;-63
2021/11/22 08:33:07;;;;;;;0.10;0.10;;;;;;;3.66;69.84;102943.97;7366495;19;20081;-63
2021/11/22 08:35:32;;;;;;;0.08;0.08;;;;;;;3.65;70.08;102939.63;7363463;19;20398;-63
2021/11/22 08:38:00;;;;;;;0.00;0.00;;;;;;;3.66;70.23;102945.66;7366464;19;20022;-63
2021/11/22 08:40:26;;;;;;;0.10;0.10;;;;;;;3.66;69.93;102946.53;7358651;19;20010;-63
2021/11/22 08:42:54;;;;;;;0.00;0.00;;;;;;;3.66;70.20;102936.22;7360515;19;20005;-63
2021/11/22 08:45:21;;;;;;;0.10;0.10;;;;;;;3.67;70.05;102948.31;7365705;19;20013;-63
2021/11/22 08:47:47;;;;;;;0.10;0.10;;;;;;;3.70;70.11;102961.34;7360206;19;20097;-63
2021/11/22 08:50:14;;;;;;;0.10;0.10;;;;;;;3.72;70.09;102962.28;7364144;19;20914;-63
2021/11/22 08:52:41;;;;;;;0.05;0.05;;;;;;;3.73;69.99;102958.00;7359901;19;20006;-63
2021/11/22 08:55:07;;;;;;;0.10;0.10;;;;;;;3.75;70.48;102957.25;7361664;19;20018;-63
2021/11/22 08:57:34;;;;;;;0.00;0.00;;;;;;;3.81;70.32;102954.06;7360654;19;20013;-63
2021/11/22 09:00:00;;;;;;;0.00;0.00;;;;;;;3.86;70.22;102961.16;7360714;19;20066;-64
2021/11/22 09:02:25;;;;;;;0.00;0.00;;;;;;;3.98;70.68;102965.06;7362241;19;20014;-64
2021/11/22 09:04:51;;;;;;;0.08;0.08;;;;;;;4.14;70.46;102967.44;7350464;19;20006;-63
2021/11/22 09:07:17;;;;;;;0.00;0.00;;;;;;;4.36;70.44;102967.47;7359423;19;20015;-63
2021/11/22 09:09:43;;;;;;;0.10;0.10;;;;;;;4.63;70.54;102974.53;7358092;19;20033;-64
2021/11/22 09:12:09;;;;;;;0.00;0.00;;;;;;;4.92;70.42;102973.94;7363831;19;20412;-63
2021/11/22 09:14:34;;;;;;;0.10;0.10;;;;;;;5.25;70.21;102978.56;7363613;19;20046;-63
2021/11/22 09:17:00;;;;;;;0.00;0.00;;;;;;;5.57;69.77;102976.22;7366398;19;20011;-63
2021/11/22 09:19:26;;;;;;;0.10;0.10;;;;;;;5.88;69.42;102984.22;7357741;19;20014;-63
2021/11/22 09:21:51;;;;;;;0.00;0.00;;;;;;;6.21;68.67;102978.38;7367273;19;20924;-63
2021/11/22 09:24:17;;;;;;;0.10;0.10;;;;;;;6.54;68.55;102978.56;7356850;19;20039;-63
2021/11/22 09:26:43;;;;;;;0.00;0.00;;;;;;;6.82;68.08;102976.78;7358362;19;20025;-63
2021/11/22 09:29:08;;;;;;;0.10;0.10;;;;;;;7.06;67.46;102976.59;7355383;19;20007;-64
2021/11/22 09:31:35;;;;;;;0.10;0.10;;;;;;;7.32;67.04;102980.78;7362185;19;20090;-63
2021/11/22 09:34:01;;;;;;;0.10;0.10;;;;;;;7.46;66.83;102958.66;7362071;19;20014;-63
2021/11/22 09:36:27;;;;;;;0.10;0.10;;;;;;;7.82;66.47;102970.84;7357568;19;20045;-63
2021/11/22 09:38:53;;;;;;;0.00;0.00;;;;;;;8.11;65.98;102970.66;7364119;19;20085;-64
2021/11/22 09:41:19;;;;;;;0.00;0.00;;;;;;;8.39;65.41;102969.63;7363093;19;20124;-64
2021/11/22 09:43:46;;;;;;;0.10;0.10;;;;;;;8.73;65.52;102977.34;7365291;19;20030;-63
2021/11/22 09:46:12;;;;;;;0.00;0.00;;;;;;;8.99;64.93;102975.28;7361342;19;21210;-63
2021/11/22 09:48:39;;;;;;;0.10;0.10;;;;;;;9.32;64.34;102974.16;7361692;19;20014;-63
2021/11/22 09:51:07;;;;;;;0.00;0.00;;;;;;;9.61;63.12;102972.97;7361163;19;20837;-63
2021/11/22 09:53:32;;;;;;;0.00;0.00;;;;;;;9.89;63.20;102978.66;7364830;19;20006;-63
2021/11/22 09:55:58;;;;;;;0.00;0.00;;;;;;;10.16;62.83;102975.63;7363993;19;20037;-64
2021/11/22 09:58:23;;;;;;;0.10;0.10;;;;;;;10.44;62.00;102983.88;7359256;19;21327;-64
2021/11/22 10:00:53;;;;;;;0.00;0.00;;;;;;;10.74;61.98;102983.44;7362963;19;20018;-64
2021/11/22 10:03:25;;;;;;;0.00;0.00;;;;;;;11.07;61.96;102983.88;7360670;19;20014;-63
2021/11/22 10:05:56;;;;;;;0.00;0.00;;;;;;;11.35;61.23;102973.69;7363766;19;20038;-62
2021/11/22 10:08:22;;;;;;;0.10;0.10;;;;;;;11.58;60.66;102977.44;7361333;19;20018;-64
2021/11/22 10:10:54;;;;;;;0.00;0.00;;;;;;;11.95;60.63;102983.00;7362910;19;20105;-64
2021/11/22 10:13:24;;;;;;;0.00;0.00;;;;;;;12.25;60.12;102986.72;7360645;19;20014;-63
2021/11/22 10:15:52;;;;;;;0.00;0.00;;;;;;;12.55;59.35;102992.16;7359733;19;20010;-64
2021/11/22 10:18:32;;;;;;;0.10;0.10;;;;;;;12.76;58.60;102969.56;7363485;19;20479;-62
2021/11/22 10:21:07;;;;;;;0.03;0.03;;;;;;;13.27;58.52;102989.88;7364420;19;20047;-64
2021/11/22 10:23:34;;;;;;;0.00;0.00;;;;;;;13.49;57.78;102985.56;7361048;19;21085;-64
2021/11/22 10:26:00;;;;;;;0.00;0.00;;;;;;;13.76;56.96;102985.59;7357678;19;20481;-60
2021/11/22 10:28:30;;;;;;;0.00;0.00;;;;;;;14.05;56.68;102971.59;7361430;19;20086;-61
2021/11/22 10:31:01;;;;;;;0.10;0.10;;;;;;;14.42;56.69;102980.28;7363168;19;20074;-61
2021/11/22 10:33:36;;;;;;;0.10;0.10;;;;;;;14.77;56.47;102981.97;7370162;19;20675;-62
2021/11/22 10:36:05;;;;;;;0.10;0.10;;;;;;;15.01;55.05;102978.38;7370202;19;20014;-62
2021/11/22 10:38:32;;;;;;;0.00;0.00;;;;;;;15.25;54.61;102986.13;7365505;19;20792;-61
2021/11/22 10:41:10;;;;;;;0.10;0.10;;;;;;;15.63;55.08;102978.88;7367209;19;20011;-61
2021/11/22 10:43:39;;;;;;;0.05;0.05;;;;;;;15.78;53.34;102974.38;7369556;19;20007;-62
2021/11/22 10:46:10;;;;;;;0.00;0.00;;;;;;;15.92;53.74;102962.88;7366019;19;20018;-61
2021/11/22 10:48:37;;;;;;;0.00;0.00;;;;;;;16.06;52.67;102987.31;7368554;19;20018;-61
2021/11/22 10:51:10;;;;;;;0.00;0.00;;;;;;;16.22;53.08;102991.56;7368788;19;20472;-62
2021/11/22 10:53:39;;;;;;;0.00;0.00;;;;;;;16.23;52.90;102982.78;7366455;19;20007;-61
2021/11/22 10:56:09;;;;;;;0.10;0.10;;;;;;;16.29;52.62;102984.47;7364269;19;20015;-61
2021/11/22 10:58:47;;;;;;;0.10;0.10;;;;;;;16.39;52.88;102977.34;7364129;19;20006;-62
2021/11/22 11:01:18;;;;;;;;;;;;;;;16.67;56.24;102972.63;7366795;19;20027;-62
2021/11/22 11:04:06;;;;;;;0.08;0.08;;;;;;;16.87;54.59;102991.75;7364113;19;19918;-62
2021/11/22 11:06:38;;;;;;;0.00;0.00;;;;;;;17.04;52.45;102981.00;7364085;19;20014;-61
2021/11/22 11:09:06;;;;;;;0.00;0.00;;;;;;;17.17;51.74;102982.56;7367958;19;20011;-62
2021/11/22 11:11:31;;;;;;;0.10;0.10;;;;;;;17.35;51.86;102974.38;7364655;19;20032;-62
2021/11/22 11:14:04;;;;;;;0.08;0.08;;;;;;;17.71;52.05;102987.06;7363010;19;20054;-62
2021/11/22 11:16:29;;;;;;;0.10;0.10;;;;;;;17.86;51.03;102998.28;7363702;19;20510;-62
2021/11/22 11:19:04;;;;;;;0.03;0.03;;;;;;;18.19;51.02;102993.28;7363811;19;20771;-62
2021/11/22 11:21:36;;;;;;;0.10;0.10;;;;;;;18.46;50.36;102993.72;7364765;19;20007;-62
2021/11/22 11:24:03;;;;;;;0.10;0.10;;;;;;;18.63;48.44;102991.59;7361919;19;20197;-61
2021/11/22 11:26:29;;;;;;;0.03;0.03;;;;;;;18.86;48.75;102999.13;7365191;19;20030;-61
2021/11/22 11:28:55;;;;;;;0.10;0.10;;;;;;;18.94;48.68;102970.69;7364198;19;20530;-61
2021/11/22 11:31:22;;;;;;;0.10;0.10;;;;;;;19.26;48.77;102991.19;7365092;19;20465;-61